Time;durP1;ratioP1;P1;durP2;ratioP2;P2;SDS_P1;SDS_P2;PMS_P1;PMS_P2;Temp;Humidity;BMP_temperature;BMP_pressure;BME280_temperature;BME280_humidity;BME280_pressure;Samples;Min_cycle;Max_cycle;Signal;HPM_P1;HPM_P2
2021/09/20 00:02:04;;;;;;;8.10;4.43;;;;;;;15.81;54.06;101734.06;4989261;28;123244;-73
2021/09/20 00:04:31;;;;;;;7.90;5.03;;;;;;;15.80;54.17;101725.16;5011611;28;124395;-73
2021/09/20 00:06:58;;;;;;;7.57;4.85;;;;;;;15.79;54.12;101730.63;5006847;28;109235;-73
2021/09/20 00:09:25;;;;;;;10.23;5.07;;;;;;;15.77;54.20;101728.88;4983036;28;108214;-73
2021/09/20 00:11:53;;;;;;;9.40;5.05;;;;;;;15.76;54.19;101729.84;5008668;28;123811;-73
2021/09/20 00:14:20;;;;;;;8.52;5.40;;;;;;;15.76;54.29;101732.50;4963455;28;124591;-73
2021/09/20 00:16:47;;;;;;;8.77;5.20;;;;;;;15.74;54.26;101734.38;5007785;28;108929;-73
2021/09/20 00:19:14;;;;;;;12.48;5.88;;;;;;;15.72;54.36;101735.38;5012590;28;108998;-73
2021/09/20 00:21:41;;;;;;;10.68;5.65;;;;;;;15.70;54.35;101731.91;5009821;28;124721;-73
2021/09/20 00:24:08;;;;;;;10.60;5.63;;;;;;;15.70;54.46;101738.13;5008401;28;124840;-73
2021/09/20 00:26:35;;;;;;;8.77;5.40;;;;;;;15.69;54.34;101741.75;5008046;28;108985;-73
2021/09/20 00:29:03;;;;;;;9.65;5.35;;;;;;;15.70;54.33;101737.25;4992284;28;108202;-73
2021/09/20 00:31:30;;;;;;;10.43;5.75;;;;;;;15.70;54.49;101732.78;4994186;28;124112;-73
2021/09/20 00:33:57;;;;;;;9.00;5.53;;;;;;;15.70;54.60;101727.44;4988698;28;122824;-73
2021/09/20 00:36:24;;;;;;;9.65;5.55;;;;;;;15.71;54.46;101729.16;5005293;28;108586;-73
2021/09/20 00:38:51;;;;;;;8.32;5.47;;;;;;;15.70;54.48;101727.44;4984755;28;108659;-73
2021/09/20 00:41:18;;;;;;;9.68;5.38;;;;;;;15.69;54.26;101725.72;5006089;28;124548;-73
2021/09/20 00:43:45;;;;;;;9.65;5.75;;;;;;;15.67;54.29;101722.28;5008467;28;123734;-75
2021/09/20 00:46:13;;;;;;;8.15;5.18;;;;;;;15.64;54.36;101733.09;4992108;28;108371;-75
2021/09/20 00:48:41;;;;;;;9.18;5.13;;;;;;;15.62;54.40;101723.47;5011829;28;109992;-75
2021/09/20 00:51:08;;;;;;;9.55;5.57;;;;;;;15.59;54.27;101724.47;5008913;28;124755;-75
2021/09/20 00:53:35;;;;;;;8.25;5.05;;;;;;;15.56;54.24;101735.31;5007493;28;123876;-75
2021/09/20 00:56:02;;;;;;;9.15;5.50;;;;;;;15.51;54.23;101738.22;5010596;28;109022;-75
2021/09/20 00:58:30;;;;;;;9.60;5.30;;;;;;;15.46;54.17;101742.91;4990340;28;108406;-75
2021/09/20 01:01:00;;;;;;;8.10;4.88;;;;;;;15.42;54.26;101743.16;5012557;28;124473;-75
2021/09/20 01:03:28;;;;;;;9.43;4.95;;;;;;;15.41;54.15;101747.66;5010171;28;123812;-75
2021/09/20 01:05:58;;;;;;;7.38;4.32;;;;;;;15.38;54.19;101743.31;5014266;28;109199;-75
2021/09/20 01:08:26;;;;;;;8.38;4.90;;;;;;;15.36;54.31;101744.34;4992119;28;108953;-75
2021/09/20 01:10:54;;;;;;;7.88;4.80;;;;;;;15.33;54.18;101739.16;4987013;28;123835;-75
2021/09/20 01:13:21;;;;;;;6.05;4.30;;;;;;;15.28;54.23;101742.06;5006510;28;123747;-75
2021/09/20 01:15:48;;;;;;;8.65;4.85;;;;;;;15.26;54.20;101738.59;4992009;28;108313;-75
2021/09/20 01:18:15;;;;;;;8.15;5.00;;;;;;;15.23;54.41;101744.09;5010863;28;109002;-75
2021/09/20 01:20:42;;;;;;;8.32;4.80;;;;;;;15.21;54.18;101748.63;4998778;28;123966;-75
2021/09/20 01:23:09;;;;;;;7.55;4.88;;;;;;;15.15;54.60;101746.28;5005853;28;123800;-75
2021/09/20 01:25:37;;;;;;;8.43;4.85;;;;;;;15.13;54.27;101750.84;5005015;28;109419;-75
2021/09/20 01:28:05;;;;;;;7.28;4.30;;;;;;;15.09;54.34;101754.59;4978002;28;108204;-75
2021/09/20 01:30:32;;;;;;;7.43;4.53;;;;;;;15.06;54.36;101752.06;5005718;28;123744;-75
2021/09/20 01:32:59;;;;;;;8.10;4.63;;;;;;;15.02;54.35;101750.50;5009726;28;123823;-75
2021/09/20 01:35:27;;;;;;;9.13;4.80;;;;;;;14.96;54.28;101747.19;4993674;28;109618;-74
2021/09/20 01:37:55;;;;;;;6.15;4.25;;;;;;;14.90;54.39;101752.81;4988381;28;109388;-75
2021/09/20 01:40:23;;;;;;;9.40;4.78;;;;;;;14.86;54.64;101745.94;5007945;28;123904;-75
2021/09/20 01:42:50;;;;;;;8.82;4.60;;;;;;;14.81;54.50;101747.09;4990494;28;121748;-75
2021/09/20 01:45:17;;;;;;;9.13;5.10;;;;;;;14.78;54.41;101742.75;4992582;28;109114;-75
2021/09/20 01:47:44;;;;;;;8.10;4.85;;;;;;;14.74;54.46;101743.84;5008612;28;109272;-75
2021/09/20 01:50:13;;;;;;;7.15;5.10;;;;;;;14.72;54.50;101748.38;5010771;28;124024;-75
2021/09/20 01:52:41;;;;;;;6.82;4.55;;;;;;;14.70;54.49;101744.94;4993781;28;123320;-75
2021/09/20 01:55:09;;;;;;;7.75;5.10;;;;;;;14.67;54.55;101750.38;4986073;28;109067;-75
2021/09/20 01:57:37;;;;;;;8.68;4.90;;;;;;;14.64;54.63;101739.91;4989842;28;108959;-75
2021/09/20 02:00:07;;;;;;;9.52;5.38;;;;;;;14.63;54.63;101743.47;5008713;28;124295;-75
2021/09/20 02:02:37;;;;;;;8.13;4.70;;;;;;;14.60;54.75;101740.03;5007076;28;125246;-75
2021/09/20 02:05:06;;;;;;;7.85;4.93;;;;;;;14.57;54.51;101745.50;5002404;28;108867;-75
2021/09/20 02:07:34;;;;;;;8.27;4.78;;;;;;;14.53;54.72;101749.22;4986939;28;108199;-75
2021/09/20 02:10:04;;;;;;;8.00;4.85;;;;;;;14.49;54.62;101744.13;4988724;28;123950;-75
2021/09/20 02:12:31;;;;;;;8.30;5.28;;;;;;;14.46;54.75;101747.75;5010575;28;124420;-75
2021/09/20 02:14:58;;;;;;;9.10;4.75;;;;;;;14.44;54.67;101746.97;4996210;28;108021;-75
2021/09/20 02:17:25;;;;;;;10.23;5.15;;;;;;;14.40;54.73;101754.25;5014547;28;110157;-75
2021/09/20 02:19:52;;;;;;;8.13;4.70;;;;;;;14.38;54.86;101749.94;4991053;28;122799;-75
2021/09/20 02:22:20;;;;;;;7.13;4.72;;;;;;;14.37;54.86;101758.84;5006932;28;123632;-75
2021/09/20 02:24:47;;;;;;;9.90;5.35;;;;;;;14.33;54.81;101754.59;4961451;28;109980;-75
2021/09/20 02:27:14;;;;;;;8.77;5.15;;;;;;;14.32;54.85;101750.22;5012336;28;109859;-75
2021/09/20 02:29:41;;;;;;;8.70;5.10;;;;;;;14.30;54.82;101752.09;5012683;28;124021;-75
2021/09/20 02:32:08;;;;;;;8.63;5.30;;;;;;;14.27;54.91;101757.56;4995545;28;123126;-75
2021/09/20 02:34:35;;;;;;;9.20;4.90;;;;;;;14.26;54.87;101758.47;4995063;28;108035;-75
2021/09/20 02:37:02;;;;;;;9.95;5.80;;;;;;;14.23;54.88;101755.97;5000187;28;108650;-75
2021/09/20 02:39:29;;;;;;;8.70;5.40;;;;;;;14.20;54.81;101763.19;4962874;28;123147;-75
2021/09/20 02:41:56;;;;;;;9.07;5.75;;;;;;;14.16;54.96;101761.56;5011280;28;123887;-75
2021/09/20 02:44:23;;;;;;;9.60;5.68;;;;;;;14.10;54.78;101761.84;5012697;28;109279;-75
2021/09/20 02:46:50;;;;;;;7.93;5.47;;;;;;;14.06;54.94;101768.25;5012421;28;109214;-75
2021/09/20 02:49:18;;;;;;;8.93;5.65;;;;;;;14.02;55.10;101769.34;5010282;28;123908;-74
2021/09/20 02:51:45;;;;;;;9.80;5.75;;;;;;;14.00;55.00;101765.88;5005670;28;124433;-75
2021/09/20 02:54:12;;;;;;;9.93;5.72;;;;;;;13.95;55.09;101762.53;5011405;28;109382;-75
2021/09/20 02:56:42;;;;;;;12.18;6.00;;;;;;;13.90;55.12;101767.19;4992190;28;109070;-75
2021/09/20 02:59:09;;;;;;;9.27;5.10;;;;;;;13.85;55.34;101771.88;5010228;28;123940;-75
2021/09/20 03:01:36;;;;;;;10.50;5.18;;;;;;;13.83;55.47;101775.47;4995162;28;123254;-74
2021/09/20 03:04:03;;;;;;;9.45;5.25;;;;;;;13.81;55.35;101769.34;5007554;28;109326;-74
2021/09/20 03:06:30;;;;;;;12.68;5.22;;;;;;;13.82;55.47;101773.75;4992911;28;107799;-75
2021/09/20 03:08:57;;;;;;;9.88;5.57;;;;;;;13.81;55.38;101777.34;4987893;28;123500;-75
2021/09/20 03:11:25;;;;;;;9.02;4.97;;;;;;;13.80;55.43;101780.91;4989033;28;123675;-75
2021/09/20 03:13:52;;;;;;;9.40;5.40;;;;;;;13.78;55.44;101782.78;5005195;28;108907;-75
2021/09/20 03:16:19;;;;;;;11.80;6.00;;;;;;;13.77;55.34;101780.22;5013335;28;110140;-75
2021/09/20 03:18:46;;;;;;;9.50;5.38;;;;;;;13.77;55.76;101781.06;4994085;28;124318;-75
2021/09/20 03:21:13;;;;;;;8.30;5.85;;;;;;;13.78;55.53;101780.13;4992109;28;123828;-75
2021/09/20 03:23:40;;;;;;;9.75;5.35;;;;;;;13.79;55.41;101784.53;4996549;28;108278;-75
2021/09/20 03:26:10;;;;;;;8.93;5.38;;;;;;;13.77;55.47;101783.72;4993503;28;108547;-75
2021/09/20 03:28:38;;;;;;;8.73;5.22;;;;;;;13.76;55.47;101783.78;4984671;28;123547;-75
2021/09/20 03:31:05;;;;;;;8.55;5.18;;;;;;;13.75;55.45;101782.03;5003417;28;123641;-75
2021/09/20 03:33:32;;;;;;;9.30;5.35;;;;;;;13.71;55.57;101784.00;4992526;28;108166;-75
2021/09/20 03:35:59;;;;;;;8.38;5.28;;;;;;;13.69;55.52;101785.84;4989602;28;109291;-75
2021/09/20 03:38:26;;;;;;;10.23;5.40;;;;;;;13.67;55.56;101785.03;5001363;28;123999;-75
2021/09/20 03:40:53;;;;;;;8.68;5.53;;;;;;;13.66;55.60;101782.47;4989537;28;124446;-75
2021/09/20 03:43:20;;;;;;;10.30;5.38;;;;;;;13.63;55.56;101788.78;5011039;28;109689;-75
2021/09/20 03:45:47;;;;;;;9.18;4.95;;;;;;;13.60;55.55;101786.25;5006518;28;107806;-75
2021/09/20 03:48:14;;;;;;;9.18;5.90;;;;;;;13.58;55.67;101791.66;5009237;28;123766;-75
2021/09/20 03:50:41;;;;;;;8.77;5.57;;;;;;;13.56;55.65;101787.28;5009395;28;123407;-75
2021/09/20 03:53:08;;;;;;;10.38;5.50;;;;;;;13.54;55.52;101783.84;5002130;28;108410;-75
2021/09/20 03:55:36;;;;;;;8.45;4.90;;;;;;;13.52;55.57;101785.69;5011795;28;108912;-75
2021/09/20 03:58:03;;;;;;;8.75;5.25;;;;;;;13.49;55.68;101796.50;5009183;28;124050;-75
2021/09/20 04:00:30;;;;;;;8.85;5.18;;;;;;;13.47;55.69;101793.88;5003610;28;124637;-75
2021/09/20 04:02:57;;;;;;;8.15;4.90;;;;;;;13.46;55.68;101791.28;4994009;28;110531;-75
2021/09/20 04:05:24;;;;;;;9.70;5.22;;;;;;;13.43;55.86;101795.81;5008882;28;109321;-75
2021/09/20 04:07:51;;;;;;;7.97;5.18;;;;;;;13.40;55.73;101798.59;5011303;28;123616;-75
2021/09/20 04:10:19;;;;;;;8.48;5.32;;;;;;;13.38;55.90;101795.13;5009396;28;124591;-75
2021/09/20 04:12:46;;;;;;;9.18;5.20;;;;;;;13.36;56.04;101802.31;4993004;28;107261;-75
2021/09/20 04:15:13;;;;;;;7.05;4.55;;;;;;;13.34;55.94;101798.84;4992061;28;109115;-75
2021/09/20 04:17:40;;;;;;;8.77;5.10;;;;;;;13.31;55.89;101793.66;5010224;28;124354;-75
2021/09/20 04:20:08;;;;;;;10.18;5.55;;;;;;;13.27;55.76;101794.66;5009293;28;124060;-75
2021/09/20 04:22:35;;;;;;;7.53;4.90;;;;;;;13.24;56.03;101797.44;5010931;28;109534;-75
2021/09/20 04:25:03;;;;;;;9.13;5.47;;;;;;;13.21;55.78;101797.59;4992697;28;108488;-75
2021/09/20 04:27:30;;;;;;;10.25;5.60;;;;;;;13.20;56.07;101806.50;4978047;28;122941;-75
2021/09/20 04:29:57;;;;;;;10.02;5.30;;;;;;;13.16;55.97;101802.22;5009024;28;124198;-75
2021/09/20 04:32:25;;;;;;;8.48;5.18;;;;;;;13.15;56.00;101808.50;4990184;28;108208;-75
2021/09/20 04:34:52;;;;;;;9.55;5.85;;;;;;;13.14;56.18;101812.06;4986541;28;109257;-75
2021/09/20 04:37:19;;;;;;;8.30;5.30;;;;;;;13.14;56.20;101806.75;4991003;28;124192;-75
2021/09/20 04:39:47;;;;;;;10.13;5.60;;;;;;;13.11;56.29;101817.50;5011574;28;124587;-74
2021/09/20 04:42:14;;;;;;;9.90;5.68;;;;;;;13.09;56.29;101814.03;5009521;28;109319;-75
2021/09/20 04:44:42;;;;;;;8.07;5.57;;;;;;;13.09;56.33;101819.34;4973261;28;108486;-75
2021/09/20 04:47:09;;;;;;;8.93;5.35;;;;;;;13.10;56.27;101826.41;5011614;28;124081;-75
2021/09/20 04:49:36;;;;;;;8.65;5.15;;;;;;;13.11;56.36;101828.13;5007212;28;124615;-75
2021/09/20 04:52:03;;;;;;;10.13;5.60;;;;;;;13.13;56.49;101826.28;4978180;28;110007;-75
2021/09/20 04:54:30;;;;;;;10.25;5.43;;;;;;;13.14;56.40;101836.00;4988989;28;109535;-75
2021/09/20 04:56:57;;;;;;;9.98;5.55;;;;;;;13.14;56.34;101843.97;4987256;28;123302;-75
2021/09/20 04:59:24;;;;;;;8.70;5.35;;;;;;;13.15;56.38;101840.41;5007420;28;124142;-75
2021/09/20 05:01:51;;;;;;;9.52;5.88;;;;;;;13.17;56.46;101838.56;4985629;28;107455;-74
2021/09/20 05:04:19;;;;;;;11.55;5.85;;;;;;;13.18;56.56;101841.13;5002299;28;109234;-74
2021/09/20 05:06:46;;;;;;;11.18;6.03;;;;;;;13.20;56.54;101838.41;5006645;22;124015;-63
2021/09/20 05:09:13;;;;;;;10.15;5.70;;;;;;;13.22;56.50;101841.88;4978889;28;124488;-63
2021/09/20 05:11:40;;;;;;;10.75;5.72;;;;;;;13.22;56.48;101847.19;4975686;28;109722;-63
2021/09/20 05:14:07;;;;;;;9.02;5.30;;;;;;;13.20;56.33;101846.38;4974238;28;109032;-63
2021/09/20 05:16:34;;;;;;;9.18;5.43;;;;;;;13.20;56.28;101835.75;4976194;28;123083;-64
2021/09/20 05:19:02;;;;;;;9.60;5.80;;;;;;;13.20;56.35;101843.72;4971214;28;123951;-64
2021/09/20 05:21:29;;;;;;;9.88;5.70;;;;;;;13.20;56.38;101846.38;4975763;28;108032;-64
2021/09/20 05:23:56;;;;;;;10.43;6.10;;;;;;;13.20;56.51;101843.72;4974789;28;109432;-64
2021/09/20 05:26:23;;;;;;;13.20;6.03;;;;;;;13.20;56.50;101843.72;4976222;28;124122;-63
2021/09/20 05:28:50;;;;;;;9.43;5.70;;;;;;;13.19;56.79;101847.34;4972646;28;124646;-63
2021/09/20 05:31:17;;;;;;;11.30;5.70;;;;;;;13.18;56.53;101845.59;4972870;28;109523;-63
2021/09/20 05:33:45;;;;;;;8.90;5.75;;;;;;;13.18;56.58;101850.91;4975753;28;109048;-64
2021/09/20 05:36:12;;;;;;;9.00;5.43;;;;;;;13.16;56.46;101847.44;4977573;28;123770;-64
2021/09/20 05:38:39;;;;;;;13.20;6.18;;;;;;;13.14;56.60;101854.63;4973469;28;124619;-64
2021/09/20 05:41:07;;;;;;;10.98;5.93;;;;;;;13.14;56.76;101849.31;4973668;28;110361;-64
2021/09/20 05:43:34;;;;;;;10.68;5.82;;;;;;;13.15;56.69;101856.38;4973836;28;109767;-64
2021/09/20 05:46:01;;;;;;;13.45;6.43;;;;;;;13.14;56.71;101854.63;4979029;28;124134;-64
2021/09/20 05:48:28;;;;;;;11.35;6.10;;;;;;;13.14;56.92;101859.94;4974856;28;123822;-64
2021/09/20 05:50:55;;;;;;;10.52;6.00;;;;;;;13.15;56.92;101856.38;4977387;28;109731;-64
2021/09/20 05:53:23;;;;;;;11.93;6.07;;;;;;;13.17;56.87;101859.84;4974359;28;109286;-64
2021/09/20 05:55:50;;;;;;;9.75;6.25;;;;;;;13.20;56.90;101865.91;4982887;28;124634;-64
2021/09/20 05:58:17;;;;;;;11.43;6.40;;;;;;;13.23;56.95;101867.56;4980285;28;123936;-64
2021/09/20 06:00:45;;;;;;;10.70;6.07;;;;;;;13.26;56.88;101870.09;4979016;28;109169;-65
2021/09/20 06:03:12;;;;;;;12.05;6.40;;;;;;;13.27;56.98;101866.50;4977156;28;109293;-64
2021/09/20 06:05:40;;;;;;;10.40;6.38;;;;;;;13.28;56.92;101862.94;4977438;28;125088;-64
2021/09/20 06:08:07;;;;;;;11.52;6.38;;;;;;;13.30;56.98;101871.75;4979656;28;123952;-64
2021/09/20 06:10:36;;;;;;;11.00;5.97;;;;;;;13.32;57.17;101875.22;4978639;28;109069;-64
2021/09/20 06:13:06;;;;;;;10.55;6.07;;;;;;;13.35;57.14;101868.88;4980886;28;109137;-64
2021/09/20 06:15:35;;;;;;;11.98;6.43;;;;;;;13.38;57.20;101874.97;4979677;28;124781;-64
2021/09/20 06:18:04;;;;;;;11.80;6.68;;;;;;;13.41;57.37;101880.16;4976795;28;124019;-64
2021/09/20 06:20:33;;;;;;;10.73;6.18;;;;;;;13.47;57.31;101883.50;4980423;28;109358;-64
2021/09/20 06:23:01;;;;;;;12.70;6.82;;;;;;;13.51;57.42;101885.13;4986440;28;109823;-64
2021/09/20 06:25:28;;;;;;;11.00;6.50;;;;;;;13.57;57.50;101892.84;4977516;28;122926;-64
2021/09/20 06:27:55;;;;;;;11.57;6.25;;;;;;;13.65;57.57;101882.75;4977722;28;123781;-64
2021/09/20 06:30:23;;;;;;;11.48;6.80;;;;;;;13.73;57.48;101891.28;4979693;28;110389;-64
2021/09/20 06:32:50;;;;;;;11.07;5.82;;;;;;;13.80;57.58;101887.41;4960795;28;109791;-64
2021/09/20 06:35:17;;;;;;;10.35;5.90;;;;;;;13.89;57.62;101890.66;4980219;28;124926;-64
2021/09/20 06:37:45;;;;;;;12.57;6.38;;;;;;;13.99;57.67;101887.53;4980005;28;124326;-64
2021/09/20 06:40:12;;;;;;;11.75;6.43;;;;;;;14.07;57.70;101879.22;4959738;28;109498;-64
2021/09/20 06:42:40;;;;;;;10.95;6.10;;;;;;;14.14;57.52;101880.66;4978038;28;107805;-64
2021/09/20 06:45:08;;;;;;;10.35;5.93;;;;;;;14.23;57.66;101883.88;4965950;28;123827;-64
2021/09/20 06:47:36;;;;;;;13.43;6.63;;;;;;;14.31;57.66;101881.72;4979174;28;123707;-64
2021/09/20 06:50:05;;;;;;;10.00;6.50;;;;;;;14.39;57.68;101890.25;4955763;28;109397;-64
2021/09/20 06:52:32;;;;;;;14.15;6.60;;;;;;;14.49;57.72;101890.72;4972963;28;108914;-64
2021/09/20 06:55:00;;;;;;;11.45;6.63;;;;;;;14.59;57.51;101889.41;4971842;28;124459;-65
2021/09/20 06:57:27;;;;;;;11.18;6.38;;;;;;;14.65;57.41;101880.25;4977645;28;123927;-65
2021/09/20 06:59:54;;;;;;;10.57;6.28;;;;;;;14.71;57.41;101880.84;4977288;28;109166;-65
2021/09/20 07:02:22;;;;;;;11.57;6.38;;;;;;;14.76;57.21;101877.97;4976321;28;108823;-65
2021/09/20 07:04:49;;;;;;;10.73;6.60;;;;;;;14.80;57.26;101887.53;4975374;28;124447;-65
2021/09/20 07:07:17;;;;;;;12.18;6.72;;;;;;;14.83;57.33;101890.09;4978314;28;123794;-65
2021/09/20 07:09:45;;;;;;;10.45;5.95;;;;;;;14.88;57.17;101898.75;4980011;28;109239;-64
2021/09/20 07:12:12;;;;;;;11.30;6.18;;;;;;;14.96;57.44;101891.25;4984294;28;108991;-64
2021/09/20 07:14:39;;;;;;;9.50;6.03;;;;;;;15.08;57.31;101894.28;4972080;28;124228;-64
2021/09/20 07:17:07;;;;;;;11.52;7.07;;;;;;;15.19;57.32;101894.63;4989586;28;123739;-65
2021/09/20 07:19:53;;;;;;;11.68;6.53;;;;;;;15.28;56.97;101899.53;4982790;28;110349;-65
2021/09/20 07:22:21;;;;;;;10.07;6.18;;;;;;;15.35;56.99;101903.63;4992045;28;109968;-64
2021/09/20 07:24:48;;;;;;;13.80;6.57;;;;;;;15.45;56.99;101908.53;4983443;28;123697;-65
2021/09/20 07:27:15;;;;;;;9.85;6.30;;;;;;;15.53;56.97;101906.34;4985822;28;124312;-65
2021/09/20 07:29:42;;;;;;;12.63;6.70;;;;;;;15.63;56.78;101902.28;4984056;28;109091;-65
2021/09/20 07:32:10;;;;;;;9.73;6.03;;;;;;;15.72;56.75;101912.50;4979251;28;109014;-65
2021/09/20 07:34:37;;;;;;;10.65;6.28;;;;;;;15.82;56.37;101915.59;4980568;28;123869;-65
2021/09/20 07:37:04;;;;;;;10.77;6.30;;;;;;;15.86;56.13;101919.00;4981403;28;125777;-65
2021/09/20 07:39:32;;;;;;;9.02;6.20;;;;;;;15.86;55.74;101913.66;4978615;28;109583;-65
2021/09/20 07:42:01;;;;;;;10.50;5.97;;;;;;;15.87;55.50;101920.75;4975432;28;109177;-65
2021/09/20 07:44:28;;;;;;;10.88;6.00;;;;;;;15.90;55.65;101925.94;4974230;28;123870;-65
2021/09/20 07:46:55;;;;;;;11.75;6.95;;;;;;;15.94;55.51;101928.38;4975875;28;124363;-65
2021/09/20 07:49:22;;;;;;;8.70;6.22;;;;;;;16.01;55.44;101934.28;4981772;28;109655;-65
2021/09/20 07:51:49;;;;;;;13.18;6.93;;;;;;;16.08;55.62;101929.47;4974430;28;109133;-65
2021/09/20 07:54:16;;;;;;;10.73;6.40;;;;;;;16.17;55.68;101933.50;4977479;28;124046;-65
2021/09/20 07:56:44;;;;;;;9.85;6.63;;;;;;;16.29;55.64;101932.84;4974020;28;122852;-65
2021/09/20 07:59:11;;;;;;;9.70;6.07;;;;;;;16.40;55.27;101943.84;4992637;28;109475;-65
2021/09/20 08:01:38;;;;;;;11.65;6.70;;;;;;;16.44;54.85;101947.25;4993847;28;108642;-65
2021/09/20 08:04:05;;;;;;;11.65;6.43;;;;;;;16.47;54.55;101941.75;4980612;28;124763;-65
2021/09/20 08:06:32;;;;;;;11.25;6.60;;;;;;;16.53;54.52;101946.75;4967430;28;123560;-65
2021/09/20 08:09:00;;;;;;;10.07;6.85;;;;;;;16.62;54.53;101945.41;4970091;28;109059;-65
2021/09/20 08:11:29;;;;;;;10.18;6.45;;;;;;;16.71;54.10;101950.28;4981884;28;110139;-65
2021/09/20 08:13:56;;;;;;;11.93;6.78;;;;;;;16.78;53.95;101951.66;4990739;28;124265;-65
2021/09/20 08:16:23;;;;;;;10.18;6.75;;;;;;;16.85;53.72;101953.09;4977089;28;123143;-65
2021/09/20 08:18:50;;;;;;;9.82;6.65;;;;;;;16.95;53.90;101963.31;4987148;28;109340;-66
2021/09/20 08:21:18;;;;;;;10.75;6.95;;;;;;;17.08;53.96;101956.34;4978933;28;109158;-65
2021/09/20 08:23:45;;;;;;;10.88;6.50;;;;;;;17.23;53.88;101958.16;4984311;28;124281;-65
2021/09/20 08:26:12;;;;;;;10.88;7.00;;;;;;;17.38;53.51;101955.59;4992474;28;124695;-65
2021/09/20 08:28:39;;;;;;;10.68;7.00;;;;;;;17.51;53.37;101959.31;4992581;28;109374;-65
2021/09/20 08:31:06;;;;;;;10.77;6.80;;;;;;;17.65;53.11;101961.19;4994480;28;109958;-65
2021/09/20 08:33:34;;;;;;;10.77;6.28;;;;;;;17.76;53.06;101971.31;4994492;28;124061;-65
2021/09/20 08:36:01;;;;;;;11.60;6.18;;;;;;;17.89;53.01;101972.38;4993224;28;123807;-65
2021/09/20 08:38:28;;;;;;;9.95;6.78;;;;;;;18.01;52.70;101977.03;4971253;28;109067;-65
2021/09/20 08:40:57;;;;;;;9.45;6.32;;;;;;;18.09;52.33;101974.75;4962858;28;109094;-65
2021/09/20 08:43:25;;;;;;;10.38;6.43;;;;;;;18.16;51.95;101980.63;4991695;28;124183;-65
2021/09/20 08:45:52;;;;;;;10.20;6.38;;;;;;;18.19;51.78;101979.56;4965631;28;123931;-65
2021/09/20 08:48:20;;;;;;;9.68;6.90;;;;;;;18.22;51.43;101974.03;4994297;28;109284;-65
2021/09/20 08:50:47;;;;;;;9.35;6.30;;;;;;;18.24;50.97;101988.22;4995858;28;108704;-65
2021/09/20 08:53:14;;;;;;;10.60;6.82;;;;;;;18.24;51.22;101988.22;4973914;28;124479;-65
2021/09/20 08:55:41;;;;;;;9.60;6.43;;;;;;;18.28;51.31;101984.41;4972787;28;123759;-65
2021/09/20 08:58:08;;;;;;;9.68;6.68;;;;;;;18.29;50.51;101986.13;4956601;28;109145;-65
2021/09/20 09:00:36;;;;;;;9.10;6.05;;;;;;;18.26;50.77;101986.31;4973550;28;110384;-65
2021/09/20 09:03:04;;;;;;;9.05;6.32;;;;;;;18.33;51.00;101987.69;4974932;28;124127;-65
2021/09/20 09:05:33;;;;;;;10.70;6.55;;;;;;;18.38;50.61;101993.59;4976413;28;124614;-65
2021/09/20 09:08:04;;;;;;;9.68;6.43;;;;;;;18.42;50.33;101989.81;4977856;28;108996;-65
2021/09/20 09:10:35;;;;;;;10.35;6.32;;;;;;;18.46;50.40;102004.75;4978719;28;109174;-65
2021/09/20 09:13:06;;;;;;;9.15;6.32;;;;;;;18.52;50.31;102002.69;4978039;28;124138;-65
2021/09/20 09:15:34;;;;;;;9.35;6.63;;;;;;;18.56;50.14;101998.84;4974026;28;123824;-65
2021/09/20 09:18:05;;;;;;;9.10;6.63;;;;;;;18.59;49.93;102001.31;4973210;28;108990;-65
2021/09/20 09:20:38;;;;;;;9.10;6.22;;;;;;;18.61;49.41;102002.09;4973414;28;108823;-65
2021/09/20 09:23:08;;;;;;;8.93;6.57;;;;;;;18.59;49.39;102010.25;4973571;28;124124;-65
2021/09/20 09:25:40;;;;;;;9.38;6.35;;;;;;;18.61;49.16;102008.34;4981156;28;123783;-66
2021/09/20 09:28:20;;;;;;;9.65;5.80;;;;;;;18.63;49.44;102010.94;4965050;28;108157;-65
2021/09/20 09:30:56;;;;;;;9.85;6.53;;;;;;;18.68;49.18;102008.81;4977016;28;109386;-65
2021/09/20 09:33:24;;;;;;;10.85;6.25;;;;;;;18.72;49.01;102010.34;4976194;28;123904;-65
2021/09/20 09:35:54;;;;;;;9.98;6.53;;;;;;;18.78;48.93;102012.69;4979014;28;124124;-65
2021/09/20 09:38:22;;;;;;;10.00;6.47;;;;;;;18.84;48.96;102015.03;4979781;28;109165;-65
2021/09/20 09:41:01;;;;;;;8.73;5.80;;;;;;;18.91;49.10;102020.00;4978084;28;109030;-65
2021/09/20 09:43:40;;;;;;;11.82;6.18;;;;;;;19.02;49.19;102017.53;4980369;28;124393;-65
2021/09/20 09:46:19;;;;;;;8.82;5.78;;;;;;;19.12;49.21;102018.69;4981074;28;124350;-65
2021/09/20 09:48:47;;;;;;;8.77;5.43;;;;;;;19.23;49.12;102020.69;4979745;28;110406;-65
2021/09/20 09:51:17;;;;;;;9.20;5.82;;;;;;;19.35;48.97;102021.75;4981956;28;109902;-65
2021/09/20 09:53:47;;;;;;;9.07;6.10;;;;;;;19.42;48.82;102021.28;4978697;28;124677;-65
2021/09/20 09:56:14;;;;;;;7.63;5.50;;;;;;;19.51;48.73;102022.47;4981611;28;124249;-65
2021/09/20 09:58:58;;;;;;;7.80;5.82;;;;;;;19.59;48.54;102017.50;4976696;28;108266;-65
2021/09/20 10:01:35;;;;;;;8.25;4.97;;;;;;;19.67;47.78;102013.47;4977095;28;108944;-66
2021/09/20 10:04:24;;;;;;;6.43;4.82;;;;;;;19.70;47.15;102013.25;4992314;28;124426;-65
2021/09/20 10:06:55;;;;;;;7.40;5.28;;;;;;;19.72;46.70;102016.69;4997518;28;123211;-66
2021/09/20 10:09:30;;;;;;;8.20;5.10;;;;;;;19.74;46.92;102015.69;4987278;28;109291;-65
2021/09/20 10:11:59;;;;;;;6.20;4.35;;;;;;;19.83;46.74;102019.56;4981885;28;108328;-64
2021/09/20 10:14:28;;;;;;;8.88;4.70;;;;;;;19.91;46.73;102011.00;4992983;28;124380;-64
2021/09/20 10:16:56;;;;;;;6.75;4.78;;;;;;;19.99;46.72;102014.06;4992599;28;123909;-64
2021/09/20 10:19:24;;;;;;;6.93;4.55;;;;;;;20.08;46.69;102017.94;4986191;28;109258;-64
2021/09/20 10:21:53;;;;;;;8.63;5.05;;;;;;;20.13;46.27;102010.44;4989844;28;108965;-64
2021/09/20 10:24:20;;;;;;;6.70;4.60;;;;;;;20.18;46.22;102009.16;4996883;28;123853;-64
2021/09/20 10:26:51;;;;;;;6.00;4.13;;;;;;;20.26;45.85;102016.72;4986992;28;124672;-63
2021/09/20 10:29:20;;;;;;;6.15;4.13;;;;;;;20.31;45.39;102017.28;4982048;28;109174;-64
2021/09/20 10:31:49;;;;;;;6.20;4.43;;;;;;;20.33;45.01;102012.66;4996308;28;109047;-64
2021/09/20 10:34:20;;;;;;;6.65;4.20;;;;;;;20.34;44.47;102019.78;4986661;28;124202;-64
2021/09/20 10:36:58;;;;;;;5.85;4.00;;;;;;;20.31;44.08;102014.59;4996727;28;123768;-64
2021/09/20 10:39:58;;;;;;;5.47;4.07;;;;;;;20.30;44.52;102012.84;4986094;28;110324;-64
2021/09/20 10:42:43;;;;;;;5.47;3.83;;;;;;;20.30;44.57;102017.38;4986966;28;109828;-64
2021/09/20 10:46:02;;;;;;;5.75;3.92;;;;;;;20.30;44.64;102018.22;4988614;28;124188;-64
2021/09/20 10:48:41;;;;;;;6.65;4.50;;;;;;;20.34;44.21;102014.41;4937696;28;124108;-64
2021/09/20 10:51:19;;;;;;;6.50;4.18;;;;;;;20.34;43.59;102009.03;4986866;28;109139;-63
2021/09/20 10:53:47;;;;;;;6.05;3.88;;;;;;;20.30;43.69;102018.22;4977198;28;108243;-64
2021/09/20 10:56:21;;;;;;;6.65;4.22;;;;;;;20.25;43.70;102015.03;4991288;28;124077;-63
2021/09/20 10:58:54;;;;;;;6.35;3.85;;;;;;;20.24;43.74;102015.97;4996045;28;123806;-64
2021/09/20 11:01:24;;;;;;;7.10;4.15;;;;;;;20.30;44.02;102018.22;5006127;28;109714;-63
2021/09/20 11:03:53;;;;;;;7.45;3.95;;;;;;;20.36;43.59;102017.84;4983702;28;107781;-63
2021/09/20 11:06:24;;;;;;;6.63;4.43;;;;;;;20.43;43.45;102016.44;5027481;22;124216;-61
2021/09/20 11:08:57;;;;;;;5.82;4.13;;;;;;;20.46;43.12;102019.91;4987685;28;123403;-61
2021/09/20 11:14:21;;;;;;;6.47;4.30;;;;;;;20.35;42.51;102021.50;5014094;28;109284;-62
2021/09/20 11:16:58;;;;;;;5.78;4.30;;;;;;;20.30;42.75;102022.75;5016021;28;124395;-62
2021/09/20 11:19:26;;;;;;;6.10;4.63;;;;;;;20.31;42.96;102014.59;5013574;28;123888;-62
2021/09/20 11:22:05;;;;;;;5.60;4.10;;;;;;;20.33;43.06;102018.03;5014297;28;108930;-63
2021/09/20 11:24:40;;;;;;;6.57;4.40;;;;;;;20.37;42.90;102014.16;4998559;28;108137;-62